Terminal Aerodrome Forecast
Issued by NWS

Home | Current Version | Previous Version | Text Only | Print | Product List | Glossary On
Versions: 1 2 3 4 5 6 7 8 9 10 11 12 13 14 15 16 17 18 19 20 21 22 23 24 25
329
FTUS41 KOKX 072350
TAFTEB
TAF
KTEB 072350Z 0800/0824 VRB05KT P6SM BKN200
     FM080400 03006KT P6SM OVC120
     FM080800 03010KT P6SM SCT020 OVC080
     FM081300 02012KT 5SM -SN OVC015
     FM081600 01012G19KT 2SM -SN OVC015
     FM082000 02009KT 3SM -SN SCT007 OVC015
     FM082200 01006KT P6SM OVC025=

USA.gov is the U.S. government's official web portal to all federal, state and local government web resources and services.